sensor_id;sensor_type;location;lat;lon;timestamp;P1;durP1;ratioP1;P2;durP2;ratioP2
70946;SDS011;58605;48.700;8.760;2022-08-23T00:02:01;9.20;;;8.40;;
70946;SDS011;58605;48.700;8.760;2022-08-23T00:04:31;8.93;;;8.13;;
70946;SDS011;58605;48.700;8.760;2022-08-23T00:06:59;9.20;;;8.33;;
70946;SDS011;58605;48.700;8.760;2022-08-23T00:09:27;10.07;;;8.47;;
70946;SDS011;58605;48.700;8.760;2022-08-23T00:11:54;9.37;;;8.53;;
70946;SDS011;58605;48.700;8.760;2022-08-23T00:14:29;8.83;;;7.83;;
70946;SDS011;58605;48.700;8.760;2022-08-23T00:16:57;8.60;;;7.80;;
70946;SDS011;58605;48.700;8.760;2022-08-23T00:19:25;9.40;;;8.50;;
70946;SDS011;58605;48.700;8.760;2022-08-23T00:21:52;8.40;;;7.67;;
70946;SDS011;58605;48.700;8.760;2022-08-23T00:24:20;11.10;;;8.37;;
70946;SDS011;58605;48.700;8.760;2022-08-23T00:26:49;10.80;;;8.77;;
70946;SDS011;58605;48.700;8.760;2022-08-23T00:29:18;10.03;;;9.00;;
70946;SDS011;58605;48.700;8.760;2022-08-23T00:31:45;9.83;;;8.90;;
70946;SDS011;58605;48.700;8.760;2022-08-23T00:34:12;10.30;;;9.30;;
70946;SDS011;58605;48.700;8.760;2022-08-23T00:36:39;10.33;;;8.40;;
70946;SDS011;58605;48.700;8.760;2022-08-23T00:39:06;10.23;;;9.23;;
70946;SDS011;58605;48.700;8.760;2022-08-23T00:41:32;10.90;;;9.40;;
70946;SDS011;58605;48.700;8.760;2022-08-23T00:43:59;11.73;;;9.73;;
70946;SDS011;58605;48.700;8.760;2022-08-23T00:46:45;11.23;;;10.13;;
70946;SDS011;58605;48.700;8.760;2022-08-23T00:49:49;10.67;;;9.77;;
70946;SDS011;58605;48.700;8.760;2022-08-23T00:52:23;10.13;;;9.17;;
70946;SDS011;58605;48.700;8.760;2022-08-23T00:54:56;10.70;;;9.70;;
70946;SDS011;58605;48.700;8.760;2022-08-23T00:57:22;9.30;;;8.40;;
70946;SDS011;58605;48.700;8.760;2022-08-23T00:59:48;10.37;;;9.40;;
70946;SDS011;58605;48.700;8.760;2022-08-23T01:05:00;10.30;;;9.30;;
70946;SDS011;58605;48.700;8.760;2022-08-23T01:07:32;10.63;;;9.53;;
70946;SDS011;58605;48.700;8.760;2022-08-23T01:10:07;11.47;;;10.30;;
70946;SDS011;58605;48.700;8.760;2022-08-23T01:12:38;9.83;;;8.93;;
70946;SDS011;58605;48.700;8.760;2022-08-23T01:15:09;9.60;;;8.70;;
70946;SDS011;58605;48.700;8.760;2022-08-23T01:17:41;9.07;;;8.17;;
70946;SDS011;58605;48.700;8.760;2022-08-23T01:20:12;9.57;;;8.67;;
70946;SDS011;58605;48.700;8.760;2022-08-23T01:22:44;9.70;;;8.90;;
70946;SDS011;58605;48.700;8.760;2022-08-23T01:25:18;9.53;;;8.63;;
70946;SDS011;58605;48.700;8.760;2022-08-23T01:27:46;11.50;;;10.27;;
70946;SDS011;58605;48.700;8.760;2022-08-23T01:30:15;10.47;;;9.57;;
70946;SDS011;58605;48.700;8.760;2022-08-23T01:32:46;9.53;;;8.73;;
70946;SDS011;58605;48.700;8.760;2022-08-23T01:35:15;10.80;;;9.80;;
70946;SDS011;58605;48.700;8.760;2022-08-23T01:37:41;10.70;;;9.70;;
70946;SDS011;58605;48.700;8.760;2022-08-23T01:40:08;11.40;;;10.20;;
70946;SDS011;58605;48.700;8.760;2022-08-23T01:42:36;10.97;;;9.87;;
70946;SDS011;58605;48.700;8.760;2022-08-23T01:45:06;11.00;;;10.00;;
70946;SDS011;58605;48.700;8.760;2022-08-23T01:47:34;11.87;;;10.70;;
70946;SDS011;58605;48.700;8.760;2022-08-23T01:50:00;11.13;;;10.13;;
70946;SDS011;58605;48.700;8.760;2022-08-23T01:52:26;10.67;;;9.67;;
70946;SDS011;58605;48.700;8.760;2022-08-23T01:54:52;9.80;;;8.80;;
70946;SDS011;58605;48.700;8.760;2022-08-23T01:57:19;10.07;;;9.07;;
70946;SDS011;58605;48.700;8.760;2022-08-23T01:59:47;9.80;;;8.90;;
70946;SDS011;58605;48.700;8.760;2022-08-23T02:02:13;10.63;;;9.63;;
70946;SDS011;58605;48.700;8.760;2022-08-23T02:04:39;10.67;;;9.57;;
70946;SDS011;58605;48.700;8.760;2022-08-23T02:07:05;11.80;;;10.67;;
70946;SDS011;58605;48.700;8.760;2022-08-23T02:09:31;11.83;;;10.63;;
70946;SDS011;58605;48.700;8.760;2022-08-23T02:11:57;11.37;;;10.30;;
70946;SDS011;58605;48.700;8.760;2022-08-23T02:14:24;12.70;;;11.40;;
70946;SDS011;58605;48.700;8.760;2022-08-23T02:16:53;12.07;;;10.87;;
70946;SDS011;58605;48.700;8.760;2022-08-23T02:19:20;11.67;;;10.67;;
70946;SDS011;58605;48.700;8.760;2022-08-23T02:21:46;12.30;;;11.13;;
70946;SDS011;58605;48.700;8.760;2022-08-23T02:24:13;12.60;;;11.30;;
70946;SDS011;58605;48.700;8.760;2022-08-23T02:26:42;13.97;;;11.43;;
70946;SDS011;58605;48.700;8.760;2022-08-23T02:29:10;11.37;;;10.47;;
70946;SDS011;58605;48.700;8.760;2022-08-23T02:31:36;12.33;;;11.10;;
70946;SDS011;58605;48.700;8.760;2022-08-23T02:34:04;12.93;;;11.73;;
70946;SDS011;58605;48.700;8.760;2022-08-23T02:36:30;11.77;;;10.33;;
70946;SDS011;58605;48.700;8.760;2022-08-23T02:38:56;10.70;;;9.70;;
70946;SDS011;58605;48.700;8.760;2022-08-23T02:41:22;11.67;;;10.57;;
70946;SDS011;58605;48.700;8.760;2022-08-23T02:43:50;11.73;;;10.63;;
70946;SDS011;58605;48.700;8.760;2022-08-23T02:46:17;12.57;;;11.37;;
70946;SDS011;58605;48.700;8.760;2022-08-23T02:48:43;12.13;;;10.93;;
70946;SDS011;58605;48.700;8.760;2022-08-23T02:51:10;11.37;;;10.47;;
70946;SDS011;58605;48.700;8.760;2022-08-23T02:53:37;11.10;;;10.03;;
70946;SDS011;58605;48.700;8.760;2022-08-23T02:56:03;11.40;;;10.30;;
70946;SDS011;58605;48.700;8.760;2022-08-23T02:58:29;12.50;;;11.40;;
70946;SDS011;58605;48.700;8.760;2022-08-23T03:00:56;12.40;;;11.20;;
70946;SDS011;58605;48.700;8.760;2022-08-23T03:03:22;11.17;;;10.07;;
70946;SDS011;58605;48.700;8.760;2022-08-23T03:05:49;11.90;;;10.70;;
70946;SDS011;58605;48.700;8.760;2022-08-23T03:08:17;11.03;;;10.03;;
70946;SDS011;58605;48.700;8.760;2022-08-23T03:10:45;14.50;;;11.53;;
70946;SDS011;58605;48.700;8.760;2022-08-23T03:13:12;11.57;;;10.47;;
70946;SDS011;58605;48.700;8.760;2022-08-23T03:15:39;10.93;;;9.93;;
70946;SDS011;58605;48.700;8.760;2022-08-23T03:18:06;11.47;;;9.63;;
70946;SDS011;58605;48.700;8.760;2022-08-23T03:20:32;11.20;;;10.17;;
70946;SDS011;58605;48.700;8.760;2022-08-23T03:22:59;11.53;;;10.47;;
70946;SDS011;58605;48.700;8.760;2022-08-23T03:25:27;11.87;;;10.67;;
70946;SDS011;58605;48.700;8.760;2022-08-23T03:27:53;12.47;;;11.17;;
70946;SDS011;58605;48.700;8.760;2022-08-23T03:30:19;12.67;;;11.37;;
70946;SDS011;58605;48.700;8.760;2022-08-23T03:32:45;12.53;;;11.23;;
70946;SDS011;58605;48.700;8.760;2022-08-23T03:35:11;12.27;;;11.13;;
70946;SDS011;58605;48.700;8.760;2022-08-23T03:37:38;13.30;;;11.90;;
70946;SDS011;58605;48.700;8.760;2022-08-23T03:40:05;11.67;;;10.50;;
70946;SDS011;58605;48.700;8.760;2022-08-23T03:42:33;11.77;;;10.67;;
70946;SDS011;58605;48.700;8.760;2022-08-23T03:44:59;12.97;;;11.70;;
70946;SDS011;58605;48.700;8.760;2022-08-23T03:47:25;12.73;;;11.03;;
70946;SDS011;58605;48.700;8.760;2022-08-23T03:49:53;12.60;;;11.30;;
70946;SDS011;58605;48.700;8.760;2022-08-23T03:52:19;11.53;;;10.43;;
70946;SDS011;58605;48.700;8.760;2022-08-23T03:54:45;13.40;;;11.10;;
70946;SDS011;58605;48.700;8.760;2022-08-23T03:57:11;11.90;;;10.70;;
70946;SDS011;58605;48.700;8.760;2022-08-23T03:59:39;12.80;;;10.07;;
70946;SDS011;58605;48.700;8.760;2022-08-23T04:02:06;11.57;;;10.57;;
70946;SDS011;58605;48.700;8.760;2022-08-23T04:04:33;12.13;;;11.03;;
70946;SDS011;58605;48.700;8.760;2022-08-23T04:06:59;11.73;;;10.70;;
70946;SDS011;58605;48.700;8.760;2022-08-23T04:09:26;11.57;;;10.43;;
70946;SDS011;58605;48.700;8.760;2022-08-23T04:11:54;11.73;;;10.47;;
70946;SDS011;58605;48.700;8.760;2022-08-23T04:14:20;12.53;;;11.43;;
70946;SDS011;58605;48.700;8.760;2022-08-23T04:16:48;12.60;;;11.47;;
70946;SDS011;58605;48.700;8.760;2022-08-23T04:19:14;12.67;;;11.47;;
70946;SDS011;58605;48.700;8.760;2022-08-23T04:21:41;13.27;;;11.97;;
70946;SDS011;58605;48.700;8.760;2022-08-23T04:24:10;13.17;;;11.87;;
70946;SDS011;58605;48.700;8.760;2022-08-23T04:26:36;13.33;;;12.00;;
70946;SDS011;58605;48.700;8.760;2022-08-23T04:29:02;14.43;;;13.03;;
70946;SDS011;58605;48.700;8.760;2022-08-23T04:31:29;15.50;;;13.90;;
70946;SDS011;58605;48.700;8.760;2022-08-23T04:33:59;15.23;;;13.70;;
70946;SDS011;58605;48.700;8.760;2022-08-23T04:36:25;15.00;;;13.50;;
70946;SDS011;58605;48.700;8.760;2022-08-23T04:38:53;13.93;;;12.60;;
70946;SDS011;58605;48.700;8.760;2022-08-23T04:41:19;14.10;;;12.77;;
70946;SDS011;58605;48.700;8.760;2022-08-23T04:44:04;14.83;;;13.33;;
70946;SDS011;58605;48.700;8.760;2022-08-23T04:46:30;16.17;;;13.87;;
70946;SDS011;58605;48.700;8.760;2022-08-23T04:48:56;15.37;;;13.87;;
70946;SDS011;58605;48.700;8.760;2022-08-23T04:51:25;13.70;;;12.40;;
70946;SDS011;58605;48.700;8.760;2022-08-23T04:53:51;14.57;;;13.10;;
70946;SDS011;58605;48.700;8.760;2022-08-23T04:56:17;14.03;;;12.63;;
70946;SDS011;58605;48.700;8.760;2022-08-23T04:58:44;14.33;;;12.77;;
70946;SDS011;58605;48.700;8.760;2022-08-23T05:01:10;13.63;;;12.23;;
70946;SDS011;58605;48.700;8.760;2022-08-23T05:03:37;13.73;;;11.93;;
70946;SDS011;58605;48.700;8.760;2022-08-23T05:06:04;12.63;;;11.53;;
70946;SDS011;58605;48.700;8.760;2022-08-23T05:08:32;13.40;;;12.10;;
70946;SDS011;58605;48.700;8.760;2022-08-23T05:10:59;12.80;;;11.60;;
70946;SDS011;58605;48.700;8.760;2022-08-23T05:13:25;13.83;;;11.07;;
70946;SDS011;58605;48.700;8.760;2022-08-23T05:15:51;11.93;;;10.73;;
70946;SDS011;58605;48.700;8.760;2022-08-23T05:18:18;12.17;;;11.07;;
70946;SDS011;58605;48.700;8.760;2022-08-23T05:20:44;12.13;;;11.03;;
70946;SDS011;58605;48.700;8.760;2022-08-23T05:23:10;12.37;;;11.07;;
70946;SDS011;58605;48.700;8.760;2022-08-23T05:25:38;12.70;;;11.50;;
70946;SDS011;58605;48.700;8.760;2022-08-23T05:28:13;11.67;;;10.47;;
70946;SDS011;58605;48.700;8.760;2022-08-23T05:30:40;14.27;;;12.87;;
70946;SDS011;58605;48.700;8.760;2022-08-23T05:33:06;13.80;;;12.53;;
70946;SDS011;58605;48.700;8.760;2022-08-23T05:35:32;14.30;;;13.00;;
70946;SDS011;58605;48.700;8.760;2022-08-23T05:37:58;14.63;;;13.27;;
70946;SDS011;58605;48.700;8.760;2022-08-23T05:40:24;14.07;;;12.73;;
70946;SDS011;58605;48.700;8.760;2022-08-23T05:42:52;14.80;;;13.50;;
70946;SDS011;58605;48.700;8.760;2022-08-23T05:45:19;16.03;;;14.03;;
70946;SDS011;58605;48.700;8.760;2022-08-23T05:47:45;17.47;;;15.63;;
70946;SDS011;58605;48.700;8.760;2022-08-23T05:50:11;18.63;;;16.50;;
70946;SDS011;58605;48.700;8.760;2022-08-23T05:52:38;18.70;;;16.80;;
70946;SDS011;58605;48.700;8.760;2022-08-23T05:55:04;19.70;;;17.23;;
70946;SDS011;58605;48.700;8.760;2022-08-23T05:57:32;19.43;;;17.37;;
70946;SDS011;58605;48.700;8.760;2022-08-23T06:00:00;18.13;;;16.17;;
70946;SDS011;58605;48.700;8.760;2022-08-23T06:02:27;16.00;;;14.60;;
70946;SDS011;58605;48.700;8.760;2022-08-23T06:04:53;13.93;;;12.57;;
70946;SDS011;58605;48.700;8.760;2022-08-23T06:07:19;13.70;;;12.20;;
70946;SDS011;58605;48.700;8.760;2022-08-23T06:09:46;13.73;;;12.27;;
70946;SDS011;58605;48.700;8.760;2022-08-23T06:12:12;12.30;;;11.10;;
70946;SDS011;58605;48.700;8.760;2022-08-23T06:14:38;12.27;;;11.17;;
70946;SDS011;58605;48.700;8.760;2022-08-23T06:17:05;11.43;;;10.33;;
70946;SDS011;58605;48.700;8.760;2022-08-23T06:19:31;10.83;;;9.73;;
70946;SDS011;58605;48.700;8.760;2022-08-23T06:21:58;12.20;;;10.77;;
70946;SDS011;58605;48.700;8.760;2022-08-23T06:24:24;12.93;;;10.33;;
70946;SDS011;58605;48.700;8.760;2022-08-23T06:26:51;10.73;;;9.73;;
70946;SDS011;58605;48.700;8.760;2022-08-23T06:29:18;11.73;;;10.53;;
70946;SDS011;58605;48.700;8.760;2022-08-23T06:31:45;11.27;;;10.07;;
70946;SDS011;58605;48.700;8.760;2022-08-23T06:34:16;11.53;;;10.40;;
70946;SDS011;58605;48.700;8.760;2022-08-23T06:36:45;11.87;;;9.30;;
70946;SDS011;58605;48.700;8.760;2022-08-23T06:39:12;10.43;;;9.43;;
70946;SDS011;58605;48.700;8.760;2022-08-23T06:41:39;9.80;;;8.90;;
70946;SDS011;58605;48.700;8.760;2022-08-23T06:44:05;9.03;;;8.33;;
70946;SDS011;58605;48.700;8.760;2022-08-23T06:46:32;9.80;;;8.93;;
70946;SDS011;58605;48.700;8.760;2022-08-23T06:48:59;10.43;;;9.53;;
70946;SDS011;58605;48.700;8.760;2022-08-23T06:51:32;10.27;;;8.77;;
70946;SDS011;58605;48.700;8.760;2022-08-23T06:54:00;10.10;;;9.20;;
70946;SDS011;58605;48.700;8.760;2022-08-23T06:56:28;10.00;;;9.00;;
70946;SDS011;58605;48.700;8.760;2022-08-23T06:58:54;9.60;;;8.60;;
70946;SDS011;58605;48.700;8.760;2022-08-23T07:01:29;9.50;;;8.67;;
70946;SDS011;58605;48.700;8.760;2022-08-23T07:04:00;9.57;;;8.63;;
70946;SDS011;58605;48.700;8.760;2022-08-23T07:06:27;11.30;;;8.40;;
70946;SDS011;58605;48.700;8.760;2022-08-23T07:08:56;16.50;;;9.03;;
70946;SDS011;58605;48.700;8.760;2022-08-23T07:11:25;9.40;;;8.50;;
70946;SDS011;58605;48.700;8.760;2022-08-23T07:13:55;9.23;;;8.27;;
70946;SDS011;58605;48.700;8.760;2022-08-23T07:16:21;9.60;;;8.03;;
70946;SDS011;58605;48.700;8.760;2022-08-23T07:18:48;11.17;;;8.00;;
70946;SDS011;58605;48.700;8.760;2022-08-23T07:21:14;9.23;;;7.88;;
70946;SDS011;58605;48.700;8.760;2022-08-23T07:23:40;9.00;;;7.28;;
70946;SDS011;58605;48.700;8.760;2022-08-23T07:26:09;9.00;;;7.55;;
70946;SDS011;58605;48.700;8.760;2022-08-23T07:28:37;7.85;;;7.18;;
70946;SDS011;58605;48.700;8.760;2022-08-23T07:31:07;7.47;;;6.75;;
70946;SDS011;58605;48.700;8.760;2022-08-23T07:33:35;6.30;;;5.70;;
70946;SDS011;58605;48.700;8.760;2022-08-23T07:36:02;6.97;;;6.28;;
70946;SDS011;58605;48.700;8.760;2022-08-23T07:38:28;7.40;;;6.18;;
70946;SDS011;58605;48.700;8.760;2022-08-23T07:40:54;7.32;;;6.25;;
70946;SDS011;58605;48.700;8.760;2022-08-23T07:43:22;6.10;;;5.50;;
70946;SDS011;58605;48.700;8.760;2022-08-23T07:45:49;8.10;;;6.53;;
70946;SDS011;58605;48.700;8.760;2022-08-23T07:48:15;5.50;;;5.00;;
70946;SDS011;58605;48.700;8.760;2022-08-23T07:50:41;6.47;;;5.88;;
70946;SDS011;58605;48.700;8.760;2022-08-23T07:53:14;6.22;;;5.25;;
70946;SDS011;58605;48.700;8.760;2022-08-23T07:55:40;4.85;;;4.45;;
70946;SDS011;58605;48.700;8.760;2022-08-23T07:58:07;5.47;;;4.97;;
70946;SDS011;58605;48.700;8.760;2022-08-23T08:00:35;5.28;;;4.63;;
70946;SDS011;58605;48.700;8.760;2022-08-23T08:03:01;5.55;;;4.63;;
70946;SDS011;58605;48.700;8.760;2022-08-23T08:05:27;4.72;;;4.25;;
70946;SDS011;58605;48.700;8.760;2022-08-23T08:07:56;4.68;;;4.25;;
70946;SDS011;58605;48.700;8.760;2022-08-23T08:10:22;4.30;;;3.90;;
70946;SDS011;58605;48.700;8.760;2022-08-23T08:12:48;3.90;;;3.60;;
70946;SDS011;58605;48.700;8.760;2022-08-23T08:15:14;3.78;;;3.40;;
70946;SDS011;58605;48.700;8.760;2022-08-23T08:17:42;4.85;;;3.75;;
70946;SDS011;58605;48.700;8.760;2022-08-23T08:20:11;3.58;;;3.15;;
70946;SDS011;58605;48.700;8.760;2022-08-23T08:22:38;4.45;;;3.72;;
70946;SDS011;58605;48.700;8.760;2022-08-23T08:25:04;3.78;;;3.40;;
70946;SDS011;58605;48.700;8.760;2022-08-23T08:27:31;4.28;;;3.88;;
70946;SDS011;58605;48.700;8.760;2022-08-23T08:29:57;3.60;;;3.30;;
70946;SDS011;58605;48.700;8.760;2022-08-23T08:32:23;4.28;;;3.20;;
70946;SDS011;58605;48.700;8.760;2022-08-23T08:34:51;3.97;;;3.50;;
70946;SDS011;58605;48.700;8.760;2022-08-23T08:37:17;3.28;;;3.08;;
70946;SDS011;58605;48.700;8.760;2022-08-23T08:39:43;4.03;;;3.45;;
70946;SDS011;58605;48.700;8.760;2022-08-23T08:42:18;3.92;;;3.40;;
70946;SDS011;58605;48.700;8.760;2022-08-23T08:44:57;4.32;;;3.42;;
70946;SDS011;58605;48.700;8.760;2022-08-23T08:47:26;3.10;;;2.90;;
70946;SDS011;58605;48.700;8.760;2022-08-23T08:50:00;4.15;;;3.47;;
70946;SDS011;58605;48.700;8.760;2022-08-23T08:52:32;3.92;;;3.22;;
70946;SDS011;58605;48.700;8.760;2022-08-23T08:55:03;3.88;;;3.47;;
70946;SDS011;58605;48.700;8.760;2022-08-23T08:57:32;3.95;;;3.33;;
70946;SDS011;58605;48.700;8.760;2022-08-23T09:00:05;5.05;;;3.10;;
70946;SDS011;58605;48.700;8.760;2022-08-23T09:02:33;3.60;;;3.30;;
70946;SDS011;58605;48.700;8.760;2022-08-23T09:05:05;3.33;;;3.03;;
70946;SDS011;58605;48.700;8.760;2022-08-23T09:07:37;3.20;;;2.90;;
70946;SDS011;58605;48.700;8.760;2022-08-23T09:10:18;3.47;;;3.17;;
70946;SDS011;58605;48.700;8.760;2022-08-23T09:12:58;3.70;;;3.40;;
70946;SDS011;58605;48.700;8.760;2022-08-23T09:15:34;4.53;;;3.60;;
70946;SDS011;58605;48.700;8.760;2022-08-23T09:18:07;3.55;;;3.20;;
70946;SDS011;58605;48.700;8.760;2022-08-23T09:20:36;3.10;;;2.90;;
70946;SDS011;58605;48.700;8.760;2022-08-23T09:23:05;3.92;;;3.53;;
70946;SDS011;58605;48.700;8.760;2022-08-23T09:25:33;4.18;;;3.30;;
70946;SDS011;58605;48.700;8.760;2022-08-23T09:27:59;3.60;;;3.30;;
70946;SDS011;58605;48.700;8.760;2022-08-23T09:33:16;4.28;;;3.38;;
70946;SDS011;58605;48.700;8.760;2022-08-23T09:35:47;3.30;;;2.88;;
70946;SDS011;58605;48.700;8.760;2022-08-23T09:38:30;4.57;;;3.25;;
70946;SDS011;58605;48.700;8.760;2022-08-23T09:40:56;6.93;;;3.17;;
70946;SDS011;58605;48.700;8.760;2022-08-23T09:43:24;5.10;;;3.22;;
70946;SDS011;58605;48.700;8.760;2022-08-23T09:45:59;3.75;;;3.05;;
70946;SDS011;58605;48.700;8.760;2022-08-23T09:48:31;3.75;;;3.30;;
70946;SDS011;58605;48.700;8.760;2022-08-23T09:51:04;3.38;;;3.08;;
70946;SDS011;58605;48.700;8.760;2022-08-23T09:53:35;3.42;;;3.13;;
70946;SDS011;58605;48.700;8.760;2022-08-23T09:56:09;3.63;;;2.90;;
70946;SDS011;58605;48.700;8.760;2022-08-23T09:58:41;3.83;;;3.10;;
70946;SDS011;58605;48.700;8.760;2022-08-23T10:01:10;5.05;;;3.10;;
70946;SDS011;58605;48.700;8.760;2022-08-23T10:03:39;4.40;;;3.38;;
70946;SDS011;58605;48.700;8.760;2022-08-23T10:06:09;3.42;;;3.13;;
70946;SDS011;58605;48.700;8.760;2022-08-23T10:08:49;3.70;;;3.28;;
70946;SDS011;58605;48.700;8.760;2022-08-23T10:11:25;2.95;;;2.65;;
70946;SDS011;58605;48.700;8.760;2022-08-23T10:13:53;3.25;;;2.95;;
70946;SDS011;58605;48.700;8.760;2022-08-23T10:16:21;4.55;;;4.00;;
70946;SDS011;58605;48.700;8.760;2022-08-23T10:18:57;3.50;;;3.20;;
70946;SDS011;58605;48.700;8.760;2022-08-23T10:21:32;5.30;;;3.22;;
70946;SDS011;58605;48.700;8.760;2022-08-23T10:24:09;4.07;;;3.67;;
70946;SDS011;58605;48.700;8.760;2022-08-23T10:26:42;3.28;;;2.97;;
70946;SDS011;58605;48.700;8.760;2022-08-23T10:29:16;4.13;;;3.17;;
70946;SDS011;58605;48.700;8.760;2022-08-23T10:32:08;4.88;;;3.20;;
70946;SDS011;58605;48.700;8.760;2022-08-23T10:34:48;3.50;;;3.20;;
70946;SDS011;58605;48.700;8.760;2022-08-23T10:37:29;4.32;;;3.08;;
70946;SDS011;58605;48.700;8.760;2022-08-23T10:40:06;3.55;;;3.25;;
70946;SDS011;58605;48.700;8.760;2022-08-23T10:42:40;3.33;;;3.03;;
70946;SDS011;58605;48.700;8.760;2022-08-23T10:45:14;3.35;;;3.05;;
70946;SDS011;58605;48.700;8.760;2022-08-23T10:47:50;3.83;;;3.38;;
70946;SDS011;58605;48.700;8.760;2022-08-23T10:50:25;3.55;;;3.25;;
70946;SDS011;58605;48.700;8.760;2022-08-23T10:52:57;4.00;;;3.30;;
70946;SDS011;58605;48.700;8.760;2022-08-23T10:55:35;3.25;;;2.90;;
70946;SDS011;58605;48.700;8.760;2022-08-23T10:58:10;3.85;;;2.92;;
70946;SDS011;58605;48.700;8.760;2022-08-23T11:00:43;4.22;;;3.35;;
70946;SDS011;58605;48.700;8.760;2022-08-23T11:03:10;3.92;;;3.30;;
70946;SDS011;58605;48.700;8.760;2022-08-23T11:08:46;4.70;;;2.92;;
70946;SDS011;58605;48.700;8.760;2022-08-23T11:14:02;3.40;;;3.10;;
70946;SDS011;58605;48.700;8.760;2022-08-23T11:16:29;3.55;;;3.15;;
70946;SDS011;58605;48.700;8.760;2022-08-23T11:18:55;3.53;;;2.75;;
70946;SDS011;58605;48.700;8.760;2022-08-23T11:21:42;3.70;;;2.90;;
70946;SDS011;58605;48.700;8.760;2022-08-23T11:24:33;3.28;;;2.95;;
70946;SDS011;58605;48.700;8.760;2022-08-23T11:27:27;3.03;;;2.80;;
70946;SDS011;58605;48.700;8.760;2022-08-23T11:33:15;4.57;;;3.10;;
70946;SDS011;58605;48.700;8.760;2022-08-23T11:35:47;3.17;;;2.88;;
70946;SDS011;58605;48.700;8.760;2022-08-23T11:38:14;4.15;;;3.45;;
70946;SDS011;58605;48.700;8.760;2022-08-23T11:40:55;3.13;;;2.60;;
70946;SDS011;58605;48.700;8.760;2022-08-23T11:43:25;3.25;;;2.95;;
70946;SDS011;58605;48.700;8.760;2022-08-23T11:49:03;3.28;;;2.70;;
70946;SDS011;58605;48.700;8.760;2022-08-23T11:51:56;5.30;;;2.90;;
70946;SDS011;58605;48.700;8.760;2022-08-23T11:54:36;3.75;;;2.80;;
70946;SDS011;58605;48.700;8.760;2022-08-23T11:57:17;4.40;;;2.90;;
70946;SDS011;58605;48.700;8.760;2022-08-23T12:00:00;3.17;;;2.88;;
70946;SDS011;58605;48.700;8.760;2022-08-23T12:08:45;3.58;;;3.03;;
70946;SDS011;58605;48.700;8.760;2022-08-23T12:11:13;2.60;;;2.40;;
70946;SDS011;58605;48.700;8.760;2022-08-23T12:13:47;3.30;;;2.67;;
70946;SDS011;58605;48.700;8.760;2022-08-23T12:16:29;2.70;;;2.50;;
70946;SDS011;58605;48.700;8.760;2022-08-23T12:18:59;3.03;;;2.75;;
70946;SDS011;58605;48.700;8.760;2022-08-23T12:21:32;3.10;;;2.55;;
70946;SDS011;58605;48.700;8.760;2022-08-23T12:24:11;3.15;;;2.83;;
70946;SDS011;58605;48.700;8.760;2022-08-23T12:26:43;3.03;;;2.40;;
70946;SDS011;58605;48.700;8.760;2022-08-23T12:29:24;3.83;;;2.92;;
70946;SDS011;58605;48.700;8.760;2022-08-23T12:31:58;3.47;;;2.90;;
70946;SDS011;58605;48.700;8.760;2022-08-23T12:34:31;3.25;;;2.70;;
70946;SDS011;58605;48.700;8.760;2022-08-23T12:37:04;2.97;;;2.70;;
70946;SDS011;58605;48.700;8.760;2022-08-23T12:39:39;3.00;;;2.80;;
70946;SDS011;58605;48.700;8.760;2022-08-23T12:42:14;2.80;;;2.60;;
70946;SDS011;58605;48.700;8.760;2022-08-23T12:44:46;3.00;;;2.70;;
70946;SDS011;58605;48.700;8.760;2022-08-23T12:47:22;3.28;;;2.53;;
70946;SDS011;58605;48.700;8.760;2022-08-23T12:49:53;5.38;;;3.03;;
70946;SDS011;58605;48.700;8.760;2022-08-23T12:52:22;2.92;;;2.72;;
70946;SDS011;58605;48.700;8.760;2022-08-23T12:54:50;2.90;;;2.70;;
70946;SDS011;58605;48.700;8.760;2022-08-23T12:57:20;3.42;;;2.90;;
70946;SDS011;58605;48.700;8.760;2022-08-23T12:59:57;2.85;;;2.55;;
70946;SDS011;58605;48.700;8.760;2022-08-23T13:02:38;3.17;;;2.53;;
70946;SDS011;58605;48.700;8.760;2022-08-23T13:05:07;3.95;;;2.97;;
70946;SDS011;58605;48.700;8.760;2022-08-23T13:07:38;3.55;;;2.85;;
70946;SDS011;58605;48.700;8.760;2022-08-23T13:10:05;6.35;;;3.28;;
70946;SDS011;58605;48.700;8.760;2022-08-23T13:12:33;4.35;;;2.90;;
70946;SDS011;58605;48.700;8.760;2022-08-23T13:15:02;5.15;;;2.97;;
70946;SDS011;58605;48.700;8.760;2022-08-23T13:17:30;2.78;;;2.40;;
70946;SDS011;58605;48.700;8.760;2022-08-23T13:20:09;5.68;;;2.53;;
70946;SDS011;58605;48.700;8.760;2022-08-23T13:22:54;3.28;;;2.65;;
70946;SDS011;58605;48.700;8.760;2022-08-23T13:25:23;3.75;;;2.90;;
70946;SDS011;58605;48.700;8.760;2022-08-23T13:27:51;3.75;;;2.70;;
70946;SDS011;58605;48.700;8.760;2022-08-23T13:30:21;3.05;;;2.60;;
70946;SDS011;58605;48.700;8.760;2022-08-23T13:32:50;3.38;;;2.88;;
70946;SDS011;58605;48.700;8.760;2022-08-23T13:35:37;3.75;;;2.67;;
70946;SDS011;58605;48.700;8.760;2022-08-23T13:38:09;3.78;;;2.50;;
70946;SDS011;58605;48.700;8.760;2022-08-23T13:40:46;5.75;;;2.78;;
70946;SDS011;58605;48.700;8.760;2022-08-23T13:43:20;4.47;;;2.58;;
70946;SDS011;58605;48.700;8.760;2022-08-23T13:45:53;5.15;;;2.95;;
70946;SDS011;58605;48.700;8.760;2022-08-23T13:48:21;3.05;;;2.75;;
70946;SDS011;58605;48.700;8.760;2022-08-23T13:50:48;3.50;;;2.70;;
70946;SDS011;58605;48.700;8.760;2022-08-23T13:53:15;3.67;;;2.92;;
70946;SDS011;58605;48.700;8.760;2022-08-23T13:55:42;4.45;;;2.88;;
70946;SDS011;58605;48.700;8.760;2022-08-23T13:58:10;4.95;;;2.75;;
70946;SDS011;58605;48.700;8.760;2022-08-23T14:00:41;3.47;;;3.03;;
70946;SDS011;58605;48.700;8.760;2022-08-23T14:03:09;2.80;;;2.50;;
70946;SDS011;58605;48.700;8.760;2022-08-23T14:05:35;4.45;;;3.13;;
70946;SDS011;58605;48.700;8.760;2022-08-23T14:08:01;2.72;;;2.47;;
70946;SDS011;58605;48.700;8.760;2022-08-23T14:10:27;2.88;;;2.47;;
70946;SDS011;58605;48.700;8.760;2022-08-23T14:12:54;3.67;;;3.30;;
70946;SDS011;58605;48.700;8.760;2022-08-23T14:15:20;3.70;;;2.65;;
70946;SDS011;58605;48.700;8.760;2022-08-23T14:17:47;4.05;;;2.72;;
70946;SDS011;58605;48.700;8.760;2022-08-23T14:20:17;3.15;;;2.85;;
70946;SDS011;58605;48.700;8.760;2022-08-23T14:22:44;2.60;;;2.40;;
70946;SDS011;58605;48.700;8.760;2022-08-23T14:25:10;2.85;;;2.60;;
70946;SDS011;58605;48.700;8.760;2022-08-23T14:27:37;3.40;;;3.08;;
70946;SDS011;58605;48.700;8.760;2022-08-23T14:30:05;3.42;;;2.92;;
70946;SDS011;58605;48.700;8.760;2022-08-23T14:32:32;4.60;;;2.88;;
70946;SDS011;58605;48.700;8.760;2022-08-23T14:34:58;3.97;;;2.53;;
70946;SDS011;58605;48.700;8.760;2022-08-23T14:37:26;2.65;;;2.45;;
70946;SDS011;58605;48.700;8.760;2022-08-23T14:39:53;3.55;;;2.97;;
70946;SDS011;58605;48.700;8.760;2022-08-23T14:42:20;4.43;;;2.92;;
70946;SDS011;58605;48.700;8.760;2022-08-23T14:44:47;3.33;;;2.53;;
70946;SDS011;58605;48.700;8.760;2022-08-23T14:47:13;4.18;;;2.72;;
70946;SDS011;58605;48.700;8.760;2022-08-23T14:49:39;4.28;;;3.10;;
70946;SDS011;58605;48.700;8.760;2022-08-23T14:52:05;3.25;;;2.67;;
70946;SDS011;58605;48.700;8.760;2022-08-23T14:54:33;3.47;;;2.53;;
70946;SDS011;58605;48.700;8.760;2022-08-23T14:57:00;2.72;;;2.45;;
70946;SDS011;58605;48.700;8.760;2022-08-23T14:59:26;3.95;;;2.78;;
70946;SDS011;58605;48.700;8.760;2022-08-23T15:01:52;4.63;;;2.80;;
70946;SDS011;58605;48.700;8.760;2022-08-23T15:04:20;3.13;;;2.67;;
70946;SDS011;58605;48.700;8.760;2022-08-23T15:06:47;4.18;;;2.45;;
70946;SDS011;58605;48.700;8.760;2022-08-23T15:09:14;3.13;;;2.67;;
70946;SDS011;58605;48.700;8.760;2022-08-23T15:11:41;3.92;;;2.67;;
70946;SDS011;58605;48.700;8.760;2022-08-23T15:14:08;4.10;;;2.60;;
70946;SDS011;58605;48.700;8.760;2022-08-23T15:16:34;3.33;;;2.63;;